Decoded Metar for CYAT ( in ) (IATA:) | Meteo·Mobile Aviation Weather
aviador You're here:

CYAT Decoded Metar

in
Report Time2019-10-21 00:00:00
UTC Time2019-10-21 00:27:40
Flight Rules vfr VFR
Wind310° at 05 kt
W.Decomp.*RWY 24: 1.7 kt HW 4.7 kt RCW
Visibility9999 m
Phenomena:N/A
Clouds:Overcast 043 Hf
Expected CloudBase > 1,600 ft AGL from Temp-Dew spread
Ceiling4,300 ft
Temp09°C
Dew Point05°C (76% RH)
AAT6.1°C
QNH1012 hPa
Raw Report
METAR CYAT 210000Z AUTO 31005KT 9SM OVC043 09/05 A2988 RMK SLP119=

Extra information for CYAT:More info

Social comments